Time;durP1;ratioP1;P1;durP2;ratioP2;P2;SDS_P1;SDS_P2;PMS_P1;PMS_P2;Temp;Humidity;BMP_temperature;BMP_pressure;BME280_temperature;BME280_humidity;BME280_pressure;Samples;Min_cycle;Max_cycle;Signal;HPM_P1;HPM_P2
2020/12/05 00:02:52;;;;;;;20.33;1.42;;;;;;;2.28;100.00;96293.28;5040511;28;20056;-79
2020/12/05 00:05:55;;;;;;;3.40;0.52;;;;;;;2.29;100.00;96300.28;5053237;28;20182;-79
2020/12/05 00:08:58;;;;;;;3.92;1.45;;;;;;;2.32;100.00;96321.22;5053205;28;20052;-79
2020/12/05 00:12:09;;;;;;;1.40;1.15;;;;;;;2.33;100.00;96317.22;5053005;28;20087;-79
2020/12/05 00:15:12;;;;;;;4.18;1.15;;;;;;;2.35;100.00;96330.44;5052860;28;20122;-79
2020/12/05 00:18:14;;;;;;;1.95;0.95;;;;;;;2.35;100.00;96336.69;5040240;28;20615;-79
2020/12/05 00:21:18;;;;;;;3.67;1.48;;;;;;;2.32;100.00;96342.47;5052884;28;20126;-79
2020/12/05 00:24:22;;;;;;;1.05;0.90;;;;;;;2.28;100.00;96351.69;5052783;28;20098;-78
2020/12/05 00:27:25;;;;;;;1.88;1.23;;;;;;;2.24;100.00;96351.22;5052729;28;20413;-79
2020/12/05 00:30:28;;;;;;;1.35;1.17;;;;;;;2.23;100.00;96357.22;5052444;28;20129;-79
2020/12/05 00:33:31;;;;;;;0.75;0.52;;;;;;;2.18;100.00;96360.72;5052382;28;20052;-79
2020/12/05 00:36:34;;;;;;;1.48;1.10;;;;;;;2.12;100.00;96368.94;5039907;28;20140;-79
2020/12/05 00:39:36;;;;;;;1.73;1.08;;;;;;;2.05;100.00;96376.97;5052519;28;20055;-79
2020/12/05 00:42:39;;;;;;;1.83;1.15;;;;;;;2.00;100.00;96381.22;5052397;28;20060;-79
2020/12/05 00:45:42;;;;;;;0.40;0.40;;;;;;;1.97;100.00;96389.72;5052093;28;20111;-79
2020/12/05 00:48:45;;;;;;;0.65;0.63;;;;;;;1.97;100.00;96395.94;5052079;28;20472;-79
2020/12/05 00:51:48;;;;;;;1.10;0.50;;;;;;;1.91;100.00;96406.19;5052472;28;20402;-79
2020/12/05 00:54:51;;;;;;;0.10;0.10;;;;;;;1.86;100.00;96411.69;5039532;28;20055;-79
2020/12/05 00:57:54;;;;;;;0.40;0.40;;;;;;;1.81;100.00;96420.66;5051970;28;20071;-79
2020/12/05 01:00:57;;;;;;;0.57;0.57;;;;;;;1.74;100.00;96427.41;5051628;28;20090;-79
2020/12/05 01:04:00;;;;;;;2.47;1.23;;;;;;;1.71;100.00;96427.66;5052179;28;20056;-79
2020/12/05 01:07:02;;;;;;;0.30;0.30;;;;;;;1.67;100.00;96427.16;5039360;28;20056;-79
2020/12/05 01:10:05;;;;;;;1.05;0.75;;;;;;;1.65;100.00;96435.88;5039284;28;20171;-79
2020/12/05 01:13:08;;;;;;;1.08;0.90;;;;;;;1.62;100.00;96433.38;5051595;28;20051;-79
2020/12/05 01:16:12;;;;;;;0.93;0.45;;;;;;;1.64;100.00;96439.13;5051290;28;20119;-79
2020/12/05 01:19:15;;;;;;;0.45;0.45;;;;;;;1.65;100.00;96446.09;5051643;28;20090;-80
2020/12/05 01:22:20;;;;;;;1.23;0.65;;;;;;;1.65;100.00;96457.06;5039491;28;20043;-79
2020/12/05 01:25:23;;;;;;;5.22;1.52;;;;;;;1.66;100.00;96464.81;5051792;28;20043;-79
2020/12/05 01:28:26;;;;;;;1.55;0.75;;;;;;;1.67;100.00;96476.53;5051974;28;20499;-79
2020/12/05 01:31:29;;;;;;;0.82;0.82;;;;;;;1.70;100.00;96483.75;5039376;28;20135;-79
2020/12/05 01:34:32;;;;;;;1.60;1.38;;;;;;;1.72;100.00;96487.50;5051739;28;20139;-79
2020/12/05 01:37:35;;;;;;;0.70;0.70;;;;;;;1.72;100.00;96492.97;5051791;28;20409;-79
2020/12/05 01:40:37;;;;;;;5.97;0.80;;;;;;;1.74;100.00;96504.19;5051558;28;20080;-79
2020/12/05 01:43:40;;;;;;;1.17;0.80;;;;;;;1.71;100.00;96512.69;5051646;28;20132;-79
2020/12/05 01:46:45;;;;;;;0.38;0.38;;;;;;;1.70;100.00;96527.63;5051634;28;20055;-79
2020/12/05 01:49:47;;;;;;;1.65;0.65;;;;;;;1.65;100.00;96528.34;5051564;28;20044;-79
2020/12/05 01:52:50;;;;;;;0.63;0.50;;;;;;;1.64;100.00;96537.84;5051511;28;20051;-79
2020/12/05 01:55:53;;;;;;;0.82;0.43;;;;;;;1.62;100.00;96551.31;5051194;28;20098;-79
2020/12/05 01:58:56;;;;;;;1.38;0.93;;;;;;;1.60;100.00;96548.31;5051421;28;20048;-79
2020/12/05 02:02:04;;;;;;;2.65;1.38;;;;;;;1.60;100.00;96551.06;5051160;28;20052;-79
2020/12/05 02:05:19;;;;;;;3.05;1.50;;;;;;;1.59;100.00;96568.72;5051191;28;20064;-79
2020/12/05 02:08:33;;;;;;;0.55;0.55;;;;;;;1.53;100.00;96561.25;5051636;28;20102;-79
2020/12/05 02:11:41;;;;;;;1.40;0.90;;;;;;;1.51;100.00;96571.97;5051156;28;20094;-78
2020/12/05 02:14:46;;;;;;;1.33;1.20;;;;;;;1.49;100.00;96581.94;5039223;28;20110;-79
2020/12/05 02:18:06;;;;;;;0.93;0.93;;;;;;;1.46;100.00;96588.41;5051788;28;20064;-79
2020/12/05 02:21:12;;;;;;;0.52;0.52;;;;;;;1.46;100.00;96591.13;5051212;28;20048;-79
2020/12/05 02:24:16;;;;;;;1.20;0.90;;;;;;;1.47;100.00;96598.13;5051322;28;20071;-79
2020/12/05 02:27:20;;;;;;;0.50;0.50;;;;;;;1.48;100.00;96608.59;5053174;28;20095;-79
2020/12/05 02:30:22;;;;;;;0.65;0.65;;;;;;;1.49;100.00;96621.06;5053796;28;20063;-79
2020/12/05 02:33:25;;;;;;;0.77;0.75;;;;;;;1.48;100.00;96616.81;5054704;28;20060;-79
2020/12/05 02:36:35;;;;;;;0.98;0.98;;;;;;;1.51;100.00;96624.06;5054711;28;20098;-79
2020/12/05 02:39:40;;;;;;;1.10;0.77;;;;;;;1.49;100.00;96626.53;5054788;28;20044;-79
2020/12/05 02:42:44;;;;;;;3.55;0.82;;;;;;;1.50;100.00;96639.00;5054858;28;20056;-79
2020/12/05 02:45:46;;;;;;;0.57;0.57;;;;;;;1.49;100.00;96642.97;5054636;28;20420;-79
2020/12/05 02:48:49;;;;;;;3.75;1.23;;;;;;;1.51;100.00;96654.22;5054794;28;20051;-78
2020/12/05 02:51:51;;;;;;;3.13;2.05;;;;;;;1.53;100.00;96673.69;5054528;28;20523;-79
2020/12/05 02:54:54;;;;;;;1.85;1.25;;;;;;;1.53;100.00;96673.69;5054612;28;20075;-79
2020/12/05 02:57:57;;;;;;;1.60;1.50;;;;;;;1.56;100.00;96674.66;5054335;28;20055;-79
2020/12/05 03:01:00;;;;;;;1.77;0.65;;;;;;;1.55;100.00;96675.94;5054479;28;20048;-79
2020/12/05 03:04:03;;;;;;;0.80;0.80;;;;;;;1.54;100.00;96677.16;5042011;28;20048;-79
2020/12/05 03:07:06;;;;;;;2.97;0.60;;;;;;;1.52;100.00;96685.88;5041820;28;20557;-78
2020/12/05 03:10:09;;;;;;;1.20;0.60;;;;;;;1.48;100.00;96695.56;5053908;28;20523;-79
2020/12/05 03:13:12;;;;;;;0.30;0.30;;;;;;;1.45;100.00;96702.06;5053886;28;20060;-79
2020/12/05 03:16:15;;;;;;;0.75;0.65;;;;;;;1.41;100.00;96718.72;5054043;28;20052;-78
2020/12/05 03:19:18;;;;;;;0.75;0.73;;;;;;;1.36;100.00;96716.72;5054345;28;20106;-79
2020/12/05 03:22:21;;;;;;;1.15;1.05;;;;;;;1.34;100.00;96724.66;5054143;28;20080;-77
2020/12/05 03:25:24;;;;;;;0.63;0.63;;;;;;;1.31;100.00;96736.63;5054291;28;20068;-76
2020/12/05 03:28:26;;;;;;;0.52;0.52;;;;;;;1.29;100.00;96739.09;5053986;28;20044;-77
2020/12/05 03:31:42;;;;;;;0.50;0.40;;;;;;;1.23;100.00;96743.81;5053311;28;20052;-76
2020/12/05 03:34:45;;;;;;;0.35;0.35;;;;;;;1.20;100.00;96753.00;5053931;28;20052;-77
2020/12/05 03:37:48;;;;;;;0.50;0.50;;;;;;;1.17;100.00;96753.94;5053319;28;20144;-76
2020/12/05 03:40:51;;;;;;;0.57;0.57;;;;;;;1.14;100.00;96749.47;5053751;28;20103;-76
2020/12/05 03:43:54;;;;;;;0.50;0.50;;;;;;;1.13;100.00;96767.13;5054070;28;20095;-76
2020/12/05 03:46:57;;;;;;;0.47;0.47;;;;;;;1.12;100.00;96779.34;5053781;28;20080;-77
2020/12/05 03:50:03;;;;;;;1.30;1.00;;;;;;;1.13;100.00;96775.34;5053877;28;20051;-76
2020/12/05 03:53:06;;;;;;;2.20;1.25;;;;;;;1.12;100.00;96787.56;5053619;28;20060;-76
2020/12/05 03:56:09;;;;;;;0.45;0.45;;;;;;;1.12;100.00;96798.53;5040935;28;20422;-77
2020/12/05 03:59:11;;;;;;;0.65;0.30;;;;;;;1.14;100.00;96800.78;5053644;28;20115;-76
2020/12/05 04:02:15;;;;;;;1.08;0.93;;;;;;;1.14;100.00;96807.00;5053041;28;20060;-76
2020/12/05 04:05:18;;;;;;;0.45;0.45;;;;;;;1.14;100.00;96815.22;5053218;28;20094;-77
2020/12/05 04:08:20;;;;;;;0.38;0.38;;;;;;;1.14;100.00;96823.44;5053341;28;20043;-77
2020/12/05 04:11:23;;;;;;;0.52;0.52;;;;;;;1.14;100.00;96825.44;5052776;28;20063;-76
2020/12/05 04:14:27;;;;;;;0.22;0.22;;;;;;;1.16;100.00;96842.91;5053144;28;20447;-79
2020/12/05 04:17:30;;;;;;;0.52;0.43;;;;;;;1.17;100.00;96846.41;5052915;28;20048;-77
2020/12/05 04:20:34;;;;;;;0.50;0.50;;;;;;;1.18;100.00;96854.13;5053073;28;20071;-78
2020/12/05 04:23:36;;;;;;;0.45;0.45;;;;;;;1.20;100.00;96859.13;5052701;28;20142;-78
2020/12/05 04:26:39;;;;;;;0.75;0.75;;;;;;;1.23;100.00;96867.13;5053055;28;20416;-76
2020/12/05 04:29:42;;;;;;;0.52;0.52;;;;;;;1.23;100.00;96877.34;5052995;28;20124;-78
2020/12/05 04:32:45;;;;;;;22.67;1.55;;;;;;;1.26;100.00;96884.56;5052808;28;20099;-78
2020/12/05 04:35:48;;;;;;;1.67;1.48;;;;;;;1.29;100.00;96891.84;5052476;28;20178;-79
2020/12/05 04:38:51;;;;;;;0.65;0.65;;;;;;;1.31;100.00;96901.09;5052813;28;20132;-79
2020/12/05 04:41:54;;;;;;;1.10;0.90;;;;;;;1.33;100.00;96904.09;5052524;28;20555;-79
2020/12/05 04:44:58;;;;;;;0.88;0.57;;;;;;;1.37;100.00;96915.59;5052614;28;20555;-77
2020/12/05 04:48:01;;;;;;;1.48;1.13;;;;;;;1.38;100.00;96919.84;5052574;28;20048;-77
2020/12/05 04:51:04;;;;;;;0.82;0.82;;;;;;;1.38;100.00;96933.53;5051951;28;20114;-77
2020/12/05 04:54:07;;;;;;;0.95;0.95;;;;;;;1.38;100.00;96938.28;5052545;28;20083;-77
2020/12/05 04:57:16;;;;;;;0.50;0.35;;;;;;;1.33;100.00;96945.22;5052295;28;20452;-77
2020/12/05 05:00:19;;;;;;;1.05;0.57;;;;;;;1.31;100.00;96944.19;5052298;28;20043;-78
2020/12/05 05:03:25;;;;;;;1.65;1.55;;;;;;;1.28;100.00;96945.91;5052522;28;20559;-79
2020/12/05 05:06:28;;;;;;;2.03;1.02;;;;;;;1.30;100.00;96950.91;5039522;28;20469;-78
2020/12/05 05:09:31;;;;;;;2.00;0.98;;;;;;;1.29;100.00;96958.38;5051366;28;20186;-79
2020/12/05 05:12:36;;;;;;;0.63;0.63;;;;;;;1.32;100.00;96968.34;5051659;28;20078;-79
2020/12/05 05:15:40;;;;;;;0.95;0.90;;;;;;;1.38;100.00;96976.66;5020131;28;20127;-79
2020/12/05 05:18:43;;;;;;;3.03;0.88;;;;;;;1.41;100.00;96990.13;5032200;28;20615;-79
2020/12/05 05:21:47;;;;;;;4.38;0.70;;;;;;;1.44;100.00;96997.41;5032237;28;20148;-79
2020/12/05 05:25:04;;;;;;;1.17;0.77;;;;;;;1.47;100.00;97012.13;5031997;28;20151;-80
2020/12/05 05:28:07;;;;;;;1.20;1.02;;;;;;;1.45;100.00;97014.63;5032141;28;20151;-79
2020/12/05 05:34:22;;;;;;;0.50;0.50;;;;;;;1.41;100.00;97031.25;5031728;28;20108;-80
2020/12/05 05:37:25;;;;;;;1.00;1.00;;;;;;;1.40;100.00;97035.25;5030984;28;20164;-79
2020/12/05 05:40:29;;;;;;;0.80;0.80;;;;;;;1.40;100.00;97051.69;5031523;28;20064;-81
2020/12/05 05:43:32;;;;;;;1.30;0.90;;;;;;;1.41;100.00;97060.66;5031734;28;20056;-79
2020/12/05 05:46:35;;;;;;;0.65;0.60;;;;;;;1.40;100.00;97054.44;5019428;28;20697;-78
2020/12/05 05:49:38;;;;;;;2.42;0.68;;;;;;;1.40;100.00;97070.13;5032517;28;20060;-77
2020/12/05 05:52:41;;;;;;;1.65;0.65;;;;;;;1.40;100.00;97075.63;5031642;28;20141;-79
2020/12/05 05:55:48;;;;;;;0.60;0.60;;;;;;;1.39;100.00;97079.56;5031514;28;20060;-79
2020/12/05 05:58:51;;;;;;;0.20;0.20;;;;;;;1.36;100.00;97086.81;5031683;28;20099;-79
2020/12/05 06:01:55;;;;;;;1.27;0.90;;;;;;;1.34;100.00;97097.47;5034229;28;20072;-79
2020/12/05 06:04:58;;;;;;;1.90;0.70;;;;;;;1.34;100.00;97100.22;5035684;28;20612;-79
2020/12/05 06:08:02;;;;;;;0.30;0.30;;;;;;;1.33;100.00;97095.97;5035278;28;20559;-79
2020/12/05 06:11:12;;;;;;;1.33;0.65;;;;;;;1.31;100.00;97103.16;5035075;28;20060;-80
2020/12/05 06:14:15;;;;;;;1.85;1.63;;;;;;;1.32;100.00;97110.16;5044569;28;20124;-79
2020/12/05 06:17:20;;;;;;;6.97;1.23;;;;;;;1.29;100.00;97124.81;5054068;28;20099;-80
2020/12/05 06:20:28;;;;;;;0.70;0.70;;;;;;;1.26;100.00;97132.00;5055371;28;20056;-79
2020/12/05 06:23:33;;;;;;;0.43;0.43;;;;;;;1.23;100.00;97135.72;5054937;28;20417;-79
2020/12/05 06:26:39;;;;;;;0.47;0.47;;;;;;;1.23;100.00;97138.47;5042536;28;20052;-77
2020/12/05 06:29:42;;;;;;;1.15;0.95;;;;;;;1.26;100.00;97145.72;5055312;28;20060;-77
2020/12/05 06:32:47;;;;;;;0.50;0.50;;;;;;;1.34;100.00;97163.25;5054799;28;20508;-78
2020/12/05 06:35:50;;;;;;;2.20;1.50;;;;;;;1.40;100.00;97169.59;5053850;28;20055;-78
2020/12/05 06:39:19;;;;;;;0.45;0.45;;;;;;;1.36;100.00;97171.78;5054771;28;20462;-78
2020/12/05 06:42:22;;;;;;;0.25;0.25;;;;;;;1.37;100.00;97181.50;5042489;28;20051;-78
2020/12/05 06:45:27;;;;;;;1.20;1.02;;;;;;;1.31;100.00;97191.66;5056569;28;20585;-76
2020/12/05 06:48:32;;;;;;;0.50;0.50;;;;;;;1.25;100.00;97199.06;5042954;28;20155;-76
2020/12/05 06:51:35;;;;;;;0.98;0.68;;;;;;;1.21;100.00;97214.91;5054609;28;20059;-76
2020/12/05 06:54:49;;;;;;;0.82;0.82;;;;;;;1.17;100.00;97214.38;5055354;28;20121;-75
2020/12/05 06:58:00;;;;;;;0.47;0.47;;;;;;;1.12;100.00;97217.78;5054456;28;20051;-75
2020/12/05 07:01:03;;;;;;;0.10;0.03;;;;;;;1.08;100.00;97230.94;5054425;28;20103;-75
2020/12/05 07:04:22;;;;;;;0.63;0.63;;;;;;;1.00;100.00;97232.53;5054604;28;20503;-75
2020/12/05 07:07:31;;;;;;;0.60;0.60;;;;;;;1.02;100.00;97243.78;5054811;28;20630;-76
2020/12/05 07:11:03;;;;;;;0.57;0.57;;;;;;;1.11;100.00;97240.94;5044175;28;20044;-76
2020/12/05 07:14:06;;;;;;;0.55;0.50;;;;;;;1.11;100.00;97254.66;5053427;28;20062;-75
2020/12/05 07:17:20;;;;;;;1.05;0.68;;;;;;;1.20;100.00;97256.50;5043919;28;20051;-76
2020/12/05 07:20:24;;;;;;;0.28;0.28;;;;;;;1.28;100.00;97260.38;5053886;28;20044;-77
2020/12/05 07:23:27;;;;;;;1.95;1.13;;;;;;;1.36;100.00;97270.47;5051949;28;20464;-76
2020/12/05 07:26:30;;;;;;;0.82;0.45;;;;;;;1.43;100.00;97286.50;5051205;28;20098;-76
2020/12/05 07:29:33;;;;;;;1.35;1.08;;;;;;;1.47;100.00;97287.06;5054848;28;20068;-77
2020/12/05 07:32:38;;;;;;;4.25;0.77;;;;;;;1.48;100.00;97293.31;5051870;28;20075;-77
2020/12/05 07:35:41;;;;;;;1.65;1.02;;;;;;;1.50;100.00;97307.31;5053756;28;20079;-77
2020/12/05 07:38:46;;;;;;;0.65;0.65;;;;;;;1.53;100.00;97312.59;5053837;28;20044;-77
2020/12/05 07:41:50;;;;;;;0.77;0.73;;;;;;;1.53;100.00;97322.81;5053521;28;20536;-78
2020/12/05 07:45:11;;;;;;;0.95;0.82;;;;;;;1.49;100.00;97331.22;5053788;28;20079;-78
2020/12/05 07:48:16;;;;;;;0.13;0.13;;;;;;;1.43;100.00;97337.84;5053464;28;20048;-78
2020/12/05 07:51:19;;;;;;;0.85;0.75;;;;;;;1.42;100.00;97358.28;5053632;28;20091;-77
2020/12/05 07:54:23;;;;;;;0.43;0.43;;;;;;;1.36;100.00;97369.19;5053514;28;20102;-77
2020/12/05 07:57:31;;;;;;;1.40;0.77;;;;;;;1.33;100.00;97369.34;5053666;28;20079;-77
2020/12/05 08:00:34;;;;;;;12.90;1.95;;;;;;;1.29;100.00;97380.53;5053233;28;20191;-77
2020/12/05 08:04:21;;;;;;;0.10;0.10;;;;;;;1.21;100.00;97379.38;5053329;28;20051;-78
2020/12/05 08:07:38;;;;;;;1.95;1.33;;;;;;;1.22;100.00;97389.13;5052978;28;20064;-76
2020/12/05 08:10:41;;;;;;;0.35;0.35;;;;;;;1.21;100.00;97393.06;5052986;28;20056;-75
2020/12/05 08:13:47;;;;;;;0.57;0.57;;;;;;;1.21;100.00;97384.84;5052420;28;20099;-76
2020/12/05 08:16:53;;;;;;;0.50;0.50;;;;;;;1.25;100.00;97398.38;5053063;28;20044;-76
2020/12/05 08:19:56;;;;;;;0.68;0.68;;;;;;;1.22;100.00;97413.78;5040289;28;20056;-77
2020/12/05 08:23:00;;;;;;;1.30;1.02;;;;;;;1.17;100.00;97416.44;5054404;28;20044;-77
2020/12/05 08:26:07;;;;;;;1.13;0.88;;;;;;;1.09;100.00;97423.50;5072271;28;20097;-76
2020/12/05 08:29:10;;;;;;;1.02;1.02;;;;;;;1.05;100.00;97431.16;5072735;28;20094;-76
2020/12/05 08:32:19;;;;;;;5.68;0.73;;;;;;;1.02;100.00;97432.84;5072088;28;20098;-77
2020/12/05 08:35:22;;;;;;;3.22;2.25;;;;;;;1.06;100.00;97447.13;5072508;28;20082;-76
2020/12/05 08:38:25;;;;;;;3.17;1.00;;;;;;;1.13;100.00;97457.72;5072224;28;20051;-76
2020/12/05 08:41:28;;;;;;;9.35;2.63;;;;;;;1.21;100.00;97467.09;5072169;28;20093;-76
2020/12/05 08:44:31;;;;;;;8.15;3.22;;;;;;;1.29;100.00;97473.72;5072491;28;20525;-76
2020/12/05 08:47:43;;;;;;;5.15;2.30;;;;;;;1.43;100.00;97467.47;5072169;28;20131;-76
2020/12/05 08:50:46;;;;;;;2.25;2.05;;;;;;;1.47;100.00;97470.78;5072180;28;20097;-76
2020/12/05 08:53:49;;;;;;;5.07;2.13;;;;;;;1.49;100.00;97479.31;5071593;28;20052;-76
2020/12/05 08:57:06;;;;;;;8.15;3.15;;;;;;;1.53;100.00;97482.63;5071681;28;20527;-76
2020/12/05 09:00:09;;;;;;;1.00;1.00;;;;;;;1.61;100.00;97491.22;5072386;28;20060;-76
2020/12/05 09:03:21;;;;;;;2.35;0.85;;;;;;;1.67;100.00;97496.81;5072060;28;20090;-77
2020/12/05 09:06:24;;;;;;;1.67;1.55;;;;;;;1.73;100.00;97505.91;5059413;28;20089;-76
2020/12/05 09:09:28;;;;;;;2.33;1.40;;;;;;;1.84;100.00;97511.56;5071993;28;20400;-77
2020/12/05 09:12:35;;;;;;;1.65;1.45;;;;;;;1.89;100.00;97519.88;5071985;28;20097;-76
2020/12/05 09:15:51;;;;;;;1.25;0.80;;;;;;;1.97;100.00;97525.75;5059330;28;20565;-76
2020/12/05 09:18:54;;;;;;;2.25;0.80;;;;;;;2.03;100.00;97543.84;5071817;28;20454;-76
2020/12/05 09:21:57;;;;;;;1.55;1.33;;;;;;;2.12;100.00;97549.19;5071718;28;20045;-76
2020/12/05 09:25:01;;;;;;;1.30;0.63;;;;;;;2.19;100.00;97565.28;5071105;28;20051;-76
2020/12/05 09:28:12;;;;;;;4.50;0.85;;;;;;;2.28;100.00;97567.19;5071639;28;20051;-76
2020/12/05 09:31:14;;;;;;;0.33;0.30;;;;;;;2.33;100.00;97574.75;5070489;28;20420;-76
2020/12/05 09:34:35;;;;;;;3.22;1.77;;;;;;;2.41;100.00;97570.38;5071556;28;20860;-76
2020/12/05 09:37:38;;;;;;;5.15;1.70;;;;;;;2.48;100.00;97591.97;5071689;28;20118;-76
2020/12/05 09:40:41;;;;;;;2.88;0.90;;;;;;;2.52;100.00;97598.03;5071766;28;20044;-76
2020/12/05 09:43:45;;;;;;;2.15;1.75;;;;;;;2.56;100.00;97609.56;5071673;28;20039;-76
2020/12/05 09:46:47;;;;;;;3.53;1.33;;;;;;;2.62;100.00;97607.66;5071854;28;20090;-76
2020/12/05 09:49:50;;;;;;;1.35;1.17;;;;;;;2.66;100.00;97616.50;5071875;28;20047;-76
2020/12/05 09:52:53;;;;;;;1.55;1.10;;;;;;;2.70;100.00;97625.28;5071632;28;20825;-76
2020/12/05 09:55:56;;;;;;;1.55;1.25;;;;;;;2.72;100.00;97627.53;5071323;28;20516;-76
2020/12/05 09:58:58;;;;;;;7.85;2.05;;;;;;;2.73;100.00;97629.81;5071623;28;20086;-75
2020/12/05 10:02:05;;;;;;;6.60;1.48;;;;;;;2.73;100.00;97629.06;5059455;28;20107;-75
2020/12/05 10:05:10;;;;;;;2.30;1.23;;;;;;;2.73;100.00;97646.28;5071729;28;20059;-75
2020/12/05 10:08:13;;;;;;;6.07;2.15;;;;;;;2.72;100.00;97647.53;5071554;28;20055;-75
2020/12/05 10:11:16;;;;;;;2.33;0.93;;;;;;;2.72;100.00;97655.78;5071273;28;20539;-76
2020/12/05 10:14:19;;;;;;;2.97;0.98;;;;;;;2.71;100.00;97654.25;5061178;28;20504;-75
2020/12/05 10:17:22;;;;;;;1.60;0.80;;;;;;;2.75;100.00;97665.06;5051575;28;20040;-74
2020/12/05 10:20:24;;;;;;;2.15;1.48;;;;;;;2.78;100.00;97670.38;5039098;28;20055;-76
2020/12/05 10:23:27;;;;;;;3.50;1.50;;;;;;;2.84;100.00;97673.19;5051852;28;20087;-75
2020/12/05 10:26:30;;;;;;;4.85;2.55;;;;;;;2.88;100.00;97674.50;5051256;28;20084;-75
2020/12/05 10:29:33;;;;;;;3.75;1.42;;;;;;;2.95;100.00;97676.88;5050753;28;20417;-75
2020/12/05 10:32:37;;;;;;;1.67;1.30;;;;;;;2.99;100.00;97674.69;5050842;28;20051;-75
2020/12/05 10:35:40;;;;;;;1.45;0.88;;;;;;;3.06;100.00;97685.28;5050847;28;20095;-75
2020/12/05 10:38:43;;;;;;;0.85;0.63;;;;;;;3.08;100.00;97682.81;5051277;28;20075;-75
2020/12/05 10:41:48;;;;;;;3.13;1.35;;;;;;;3.15;100.00;97683.66;5051189;28;20079;-75
2020/12/05 10:44:52;;;;;;;7.32;2.08;;;;;;;3.20;100.00;97696.72;5051257;28;20060;-75
2020/12/05 10:47:55;;;;;;;2.88;1.50;;;;;;;3.23;100.00;97701.28;5052011;28;20090;-75
2020/12/05 10:51:01;;;;;;;2.58;1.77;;;;;;;3.25;100.00;97712.56;5054592;28;20107;-75
2020/12/05 10:54:06;;;;;;;1.80;1.30;;;;;;;3.29;100.00;97718.63;5042328;28;20098;-75
2020/12/05 10:57:09;;;;;;;3.17;1.55;;;;;;;3.29;100.00;97724.13;5054874;28;20043;-75
2020/12/05 11:00:12;;;;;;;22.67;2.17;;;;;;;3.34;100.00;97737.19;5054326;28;20122;-75
2020/12/05 11:03:15;;;;;;;3.70;1.85;;;;;;;3.40;100.00;97732.53;5057851;28;20039;-74
2020/12/05 11:06:19;;;;;;;6.03;3.25;;;;;;;3.40;100.00;97740.78;5057019;28;20048;-76
2020/12/05 11:09:22;;;;;;;5.50;1.52;;;;;;;3.38;100.00;97740.50;5055516;28;20063;-74
2020/12/05 11:12:25;;;;;;;9.45;1.30;;;;;;;3.39;100.00;97740.03;5056945;28;20052;-75
2020/12/05 11:15:28;;;;;;;3.00;1.80;;;;;;;3.34;100.00;97746.19;5055819;28;20047;-75
2020/12/05 11:18:31;;;;;;;8.30;3.90;;;;;;;3.33;100.00;97746.69;5055972;28;20035;-75
2020/12/05 11:21:34;;;;;;;3.42;1.48;;;;;;;3.36;100.00;97753.97;5054521;28;20179;-75
2020/12/05 11:24:37;;;;;;;5.15;1.90;;;;;;;3.40;100.00;97752.53;5054242;28;20047;-75
2020/12/05 11:27:40;;;;;;;7.70;2.20;;;;;;;3.48;100.00;97752.91;5053984;28;20126;-76
2020/12/05 11:30:43;;;;;;;5.18;1.48;;;;;;;3.65;100.00;97745.63;5053827;28;20087;-76
2020/12/05 11:33:46;;;;;;;6.00;2.42;;;;;;;3.80;100.00;97751.84;5053427;28;20052;-75
2020/12/05 11:36:48;;;;;;;3.40;1.35;;;;;;;3.89;100.00;97754.47;5053765;28;20053;-76
2020/12/05 11:39:51;;;;;;;2.25;1.20;;;;;;;3.98;100.00;97751.56;5053766;28;20048;-75
2020/12/05 11:42:54;;;;;;;3.58;1.52;;;;;;;4.03;100.00;97731.59;5054011;28;20516;-75
2020/12/05 11:45:57;;;;;;;1.73;1.50;;;;;;;3.99;100.00;97744.03;5053726;28;20051;-75
2020/12/05 11:49:00;;;;;;;21.35;2.00;;;;;;;3.85;100.00;97753.91;5053994;28;20500;-75
2020/12/05 11:52:02;;;;;;;3.03;1.38;;;;;;;3.71;100.00;97749.97;5053675;28;20052;-75
2020/12/05 11:55:05;;;;;;;3.78;1.05;;;;;;;3.59;100.00;97748.31;5053419;28;20052;-75
2020/12/05 11:58:08;;;;;;;4.93;2.38;;;;;;;3.49;100.00;97757.16;5052161;28;20051;-76
2020/12/05 12:01:11;;;;;;;1.45;1.35;;;;;;;3.40;100.00;97758.03;5053337;28;20106;-76
2020/12/05 12:04:13;;;;;;;1.90;1.33;;;;;;;3.34;100.00;97762.69;5052769;28;20111;-75
2020/12/05 12:07:16;;;;;;;4.47;1.60;;;;;;;3.32;100.00;97767.16;5053200;28;20156;-75
2020/12/05 12:10:19;;;;;;;3.88;2.63;;;;;;;3.25;100.00;97762.06;5052874;28;20159;-75
2020/12/05 12:13:22;;;;;;;1.92;1.05;;;;;;;3.23;100.00;97770.78;5052825;28;20110;-75
2020/12/05 12:16:25;;;;;;;7.45;2.00;;;;;;;3.20;100.00;97776.47;5053108;28;20102;-75
2020/12/05 12:19:28;;;;;;;3.33;1.58;;;;;;;3.12;100.00;97778.13;5053023;28;20044;-76
2020/12/05 12:22:31;;;;;;;4.13;2.05;;;;;;;3.09;100.00;97771.56;5052948;28;20578;-79
2020/12/05 12:25:33;;;;;;;1.80;1.10;;;;;;;3.05;100.00;97774.50;5040520;28;20088;-78
2020/12/05 12:28:36;;;;;;;1.13;0.98;;;;;;;3.06;100.00;97773.28;5052965;28;20052;-79
2020/12/05 12:31:39;;;;;;;3.45;1.17;;;;;;;3.04;100.00;97781.25;5053017;28;20048;-79
2020/12/05 12:34:42;;;;;;;8.10;1.77;;;;;;;2.97;100.00;97776.13;5053191;28;20055;-77
2020/12/05 12:37:46;;;;;;;6.10;1.88;;;;;;;2.91;100.00;97783.53;5052625;28;20079;-78
2020/12/05 12:40:49;;;;;;;6.13;2.15;;;;;;;2.91;100.00;97789.03;5040673;28;20051;-77
2020/12/05 12:43:52;;;;;;;0.40;0.40;;;;;;;2.89;100.00;97790.72;5052728;28;20071;-77
2020/12/05 12:47:09;;;;;;;4.35;2.40;;;;;;;2.87;100.00;97793.94;5052539;28;20056;-78
2020/12/05 12:50:12;;;;;;;2.05;1.30;;;;;;;2.87;100.00;97793.94;5052543;28;20052;-77
2020/12/05 12:53:15;;;;;;;1.80;1.45;;;;;;;2.82;100.00;97799.34;5052576;28;20059;-75
2020/12/05 12:56:21;;;;;;;1.65;1.38;;;;;;;2.72;100.00;97804.19;5052096;28;20129;-74
2020/12/05 12:59:24;;;;;;;4.30;2.05;;;;;;;2.63;100.00;97812.50;5052235;28;20071;-75
2020/12/05 13:02:27;;;;;;;9.65;1.85;;;;;;;2.61;100.00;97814.97;5052187;28;20048;-75
2020/12/05 13:05:30;;;;;;;0.93;0.63;;;;;;;2.66;100.00;97817.06;5052231;28;20102;-76
2020/12/05 13:08:34;;;;;;;6.53;2.10;;;;;;;2.73;100.00;97827.66;5051027;28;20555;-75
2020/12/05 13:11:37;;;;;;;1.10;0.90;;;;;;;2.85;100.00;97826.66;5051316;28;20106;-74
2020/12/05 13:14:40;;;;;;;8.98;1.88;;;;;;;2.96;100.00;97837.84;5051887;28;21139;-74
2020/12/05 13:17:43;;;;;;;2.83;1.30;;;;;;;3.03;100.00;97840.19;5052121;28;20047;-75
2020/12/05 13:20:45;;;;;;;2.78;1.55;;;;;;;3.03;100.00;97834.69;5051747;28;20512;-74
2020/12/05 13:23:52;;;;;;;5.68;1.60;;;;;;;2.97;100.00;97842.09;5052142;28;20484;-75
2020/12/05 13:26:55;;;;;;;8.68;1.30;;;;;;;2.91;100.00;97849.50;5051978;28;20063;-75
2020/12/05 13:29:58;;;;;;;2.38;1.30;;;;;;;2.85;100.00;97856.88;5051798;28;20182;-76
2020/12/05 13:33:01;;;;;;;6.13;1.38;;;;;;;2.79;100.00;97864.28;5051908;28;20152;-75
2020/12/05 13:36:06;;;;;;;3.65;1.30;;;;;;;2.77;100.00;97860.47;5051951;28;20044;-75
2020/12/05 13:39:10;;;;;;;2.03;1.63;;;;;;;2.76;100.00;97870.69;5052010;28;20048;-75
2020/12/05 13:42:13;;;;;;;2.38;1.55;;;;;;;2.78;100.00;97862.75;5052054;28;20103;-76
2020/12/05 13:45:16;;;;;;;1.90;0.98;;;;;;;2.86;100.00;97869.38;5051566;28;20515;-75
2020/12/05 13:48:19;;;;;;;3.20;1.70;;;;;;;2.93;100.00;97868.25;5051587;28;20052;-74
2020/12/05 13:51:34;;;;;;;1.77;1.30;;;;;;;2.92;100.00;97873.00;5051360;28;20068;-75
2020/12/05 13:54:37;;;;;;;7.53;2.53;;;;;;;2.85;100.00;97867.88;5039060;28;20464;-75
2020/12/05 13:57:41;;;;;;;3.10;1.05;;;;;;;2.81;100.00;97864.56;5051347;28;20554;-75
2020/12/05 14:00:43;;;;;;;1.58;1.23;;;;;;;2.76;100.00;97876.19;5051717;28;20052;-74
2020/12/05 14:03:46;;;;;;;4.65;1.13;;;;;;;2.68;100.00;97868.78;5051602;28;20055;-73
2020/12/05 14:06:49;;;;;;;7.82;1.55;;;;;;;2.63;100.00;97872.94;5051498;28;20047;-73
2020/12/05 14:09:52;;;;;;;1.88;1.58;;;;;;;2.62;100.00;97881.69;5051532;28;20171;-74
2020/12/05 14:12:56;;;;;;;1.23;0.90;;;;;;;2.56;100.00;97878.81;5051229;28;20094;-74
2020/12/05 14:15:59;;;;;;;1.13;1.05;;;;;;;2.49;100.00;97873.66;5031214;28;20532;-73
2020/12/05 14:19:04;;;;;;;1.15;1.02;;;;;;;2.46;100.00;97876.59;5031726;28;20492;-75
2020/12/05 14:22:08;;;;;;;1.02;0.52;;;;;;;2.41;100.00;97888.97;5032960;28;20052;-74
2020/12/05 14:25:10;;;;;;;0.82;0.82;;;;;;;2.37;100.00;97885.66;5035455;28;20103;-75
2020/12/05 14:28:15;;;;;;;17.60;1.40;;;;;;;2.31;100.00;97890.28;5035260;28;20056;-74
2020/12/05 14:31:19;;;;;;;16.67;2.85;;;;;;;2.32;100.00;97891.78;5022849;28;20389;-74
2020/12/05 14:34:24;;;;;;;3.42;1.17;;;;;;;2.22;100.00;97893.84;5047563;28;20051;-78